createdAt,value
2019-01-28T00:01:53.935Z,2.80
2019-01-28T00:04:24.259Z,4.03
2019-01-28T00:07:14.295Z,4.45
2019-01-28T00:09:44.478Z,2.72
2019-01-28T00:12:14.427Z,2.15
2019-01-28T00:15:04.534Z,2.33
2019-01-28T00:17:54.444Z,3.00
2019-01-28T00:20:44.371Z,2.35
2019-01-28T00:23:55.285Z,4.12
2019-01-28T00:26:27.902Z,2.05
2019-01-28T00:29:17.008Z,2.75
2019-01-28T00:35:03.953Z,7.70
2019-01-28T00:37:55.233Z,5.47
2019-01-28T00:40:26.536Z,4.60
2019-01-28T00:46:10.711Z,4.67
2019-01-28T00:49:02.153Z,4.87
2019-01-28T00:51:42.058Z,1.98
2019-01-28T00:57:14.013Z,2.10
2019-01-28T00:59:47.339Z,3.20
2019-01-28T01:02:17.889Z,1.37
2019-01-28T01:04:48.872Z,4.25
2019-01-28T01:07:26.403Z,2.15
2019-01-28T01:09:56.490Z,2.10
2019-01-28T01:13:02.246Z,7.72
2019-01-28T01:15:52.403Z,2.47
2019-01-28T01:18:22.622Z,2.95
2019-01-28T01:20:55.280Z,4.30
2019-01-28T01:23:44.625Z,1.70
2019-01-28T01:26:14.547Z,3.25
2019-01-28T01:29:04.037Z,2.47
2019-01-28T01:31:34.495Z,12.85
2019-01-28T01:34:05.587Z,5.55
2019-01-28T01:36:36.454Z,3.40
2019-01-28T01:39:07.636Z,1.77
2019-01-28T01:41:37.717Z,7.47
2019-01-28T01:44:10.920Z,6.08
2019-01-28T01:46:42.490Z,1.25
2019-01-28T01:49:12.831Z,1.50
2019-01-28T01:51:45.688Z,3.05
2019-01-28T01:54:35.427Z,4.42
2019-01-28T01:57:05.292Z,4.97
2019-01-28T01:59:54.708Z,2.45
2019-01-28T02:02:44.366Z,2.05
2019-01-28T02:05:14.688Z,4.08
2019-01-28T02:07:48.782Z,4.83
2019-01-28T02:10:21.535Z,3.27
2019-01-28T02:15:26.822Z,9.88
2019-01-28T02:18:16.571Z,1.75
2019-01-28T02:21:06.187Z,3.42
2019-01-28T02:23:36.347Z,3.20
2019-01-28T02:26:26.124Z,7.33
2019-01-28T02:29:15.735Z,3.25
2019-01-28T02:32:05.143Z,10.65
2019-01-28T02:34:35.169Z,2.47
2019-01-28T02:37:05.277Z,1.90
2019-01-28T02:39:54.815Z,3.55
2019-01-28T02:42:45.308Z,3.12
2019-01-28T02:45:15.941Z,2.95
2019-01-28T02:47:45.710Z,6.70
2019-01-28T02:50:35.191Z,1.50
2019-01-28T02:53:24.905Z,2.42
2019-01-28T02:56:14.757Z,2.22
2019-01-28T02:58:45.206Z,1.10
2019-01-28T03:01:15.232Z,3.08
2019-01-28T03:04:04.870Z,0.98
2019-01-28T03:06:54.341Z,1.90
2019-01-28T03:09:44.018Z,1.25
2019-01-28T03:12:33.391Z,0.90
2019-01-28T03:15:04.542Z,1.87
2019-01-28T03:17:34.507Z,1.00
2019-01-28T03:20:24.236Z,5.80
2019-01-28T03:22:54.427Z,2.22
2019-01-28T03:25:44.253Z,2.83
2019-01-28T03:28:14.400Z,3.95
2019-01-28T03:30:44.581Z,0.75
2019-01-28T03:33:14.548Z,0.90
2019-01-28T03:35:44.693Z,1.12
2019-01-28T03:38:14.600Z,1.77
2019-01-28T03:41:04.084Z,2.60
2019-01-28T03:43:34.014Z,1.70
2019-01-28T03:46:23.536Z,2.98
2019-01-28T03:49:13.070Z,1.67
2019-01-28T03:52:02.999Z,4.10
2019-01-28T03:54:52.673Z,2.27
2019-01-28T03:57:22.709Z,1.30
2019-01-28T03:59:52.830Z,0.82
2019-01-28T04:02:23.068Z,3.35
2019-01-28T04:04:53.039Z,3.37
2019-01-28T04:07:23.082Z,3.67
2019-01-28T04:10:33.385Z,1.10
2019-01-28T04:13:03.734Z,6.28
2019-01-28T04:15:46.320Z,1.07
2019-01-28T04:18:36.230Z,3.05
2019-01-28T04:21:25.789Z,1.02
2019-01-28T04:24:15.177Z,5.72
2019-01-28T04:26:45.278Z,2.83
2019-01-28T04:29:15.369Z,3.12
2019-01-28T04:31:45.480Z,2.10
2019-01-28T04:34:15.542Z,0.90
2019-01-28T04:36:45.578Z,4.92
2019-01-28T04:39:15.676Z,1.40
2019-01-28T04:41:46.128Z,1.40
2019-01-28T04:44:17.961Z,4.90
2019-01-28T04:47:06.289Z,4.90
2019-01-28T04:49:36.382Z,4.22
2019-01-28T04:52:25.965Z,2.02
2019-01-28T04:55:15.596Z,1.30
2019-01-28T04:58:05.079Z,3.33
2019-01-28T05:00:54.441Z,2.12
2019-01-28T05:03:43.911Z,2.35
2019-01-28T05:06:33.526Z,1.07
2019-01-28T05:09:07.735Z,1.47
2019-01-28T05:11:37.764Z,1.75
2019-01-28T05:14:07.781Z,1.55
2019-01-28T05:16:37.859Z,1.00
2019-01-28T05:19:08.394Z,0.93
2019-01-28T05:21:38.619Z,4.15
2019-01-28T05:24:28.398Z,1.70
2019-01-28T05:26:58.475Z,0.90
2019-01-28T05:29:48.470Z,0.95
2019-01-28T05:32:38.301Z,2.08
2019-01-28T05:35:10.139Z,1.12
2019-01-28T05:38:00.911Z,0.90
2019-01-28T05:40:32.076Z,0.98
2019-01-28T05:43:21.647Z,1.12
2019-01-28T05:45:52.085Z,2.00
2019-01-28T05:48:22.243Z,4.20
2019-01-28T05:51:11.941Z,1.87
2019-01-28T05:53:42.057Z,2.47
2019-01-28T05:59:06.946Z,0.80
2019-01-28T06:05:13.131Z,0.68
2019-01-28T06:08:05.367Z,1.00
2019-01-28T06:10:35.717Z,0.93
2019-01-28T06:13:25.156Z,0.70
2019-01-28T06:16:14.632Z,1.10
2019-01-28T06:18:44.821Z,8.88
2019-01-28T06:21:34.602Z,1.10
2019-01-28T06:24:05.028Z,1.35
2019-01-28T06:26:45.153Z,1.20
2019-01-28T06:29:15.343Z,1.30
2019-01-28T06:32:05.129Z,0.80
2019-01-28T06:34:54.737Z,1.00
2019-01-28T06:37:41.775Z,1.12
2019-01-28T06:40:54.859Z,2.50
2019-01-28T06:43:44.670Z,0.93
2019-01-28T06:46:34.429Z,1.25
2019-01-28T06:49:24.754Z,0.90
2019-01-28T06:58:09.318Z,0.93
2019-01-28T07:03:35.245Z,2.33
2019-01-28T07:06:07.068Z,8.15
2019-01-28T07:09:38.055Z,1.00
2019-01-28T07:12:08.638Z,10.28
2019-01-28T07:17:55.134Z,1.32
2019-01-28T07:20:45.319Z,1.00
2019-01-28T07:23:35.247Z,1.55
2019-01-28T07:26:25.030Z,1.02
2019-01-28T07:29:14.731Z,2.00
2019-01-28T07:32:04.497Z,2.52
2019-01-28T07:34:54.067Z,6.33
2019-01-28T07:37:44.315Z,2.72
2019-01-28T07:40:34.217Z,1.35
2019-01-28T07:43:04.572Z,3.05
2019-01-28T07:45:44.657Z,2.27
2019-01-28T07:48:09.176Z,2.37
2019-01-28T07:50:39.583Z,4.85
2019-01-28T07:53:09.634Z,5.25
2019-01-28T07:55:39.692Z,1.10
2019-01-28T07:58:09.795Z,1.02
2019-01-28T08:00:39.955Z,2.42
2019-01-28T08:03:29.613Z,2.40
2019-01-28T08:05:59.953Z,1.92
2019-01-28T08:08:49.535Z,2.15
2019-01-28T08:11:19.764Z,2.85
2019-01-28T08:14:09.412Z,3.90
2019-01-28T08:16:58.000Z,1.75
2019-01-28T08:19:41.754Z,2.12
2019-01-28T08:22:31.490Z,2.17
2019-01-28T08:25:01.569Z,1.22
2019-01-28T08:27:51.080Z,2.87
2019-01-28T08:30:36.120Z,2.65
2019-01-28T08:33:07.122Z,5.15
2019-01-28T08:35:38.369Z,1.40
2019-01-28T08:38:09.313Z,1.25
2019-01-28T08:40:59.583Z,1.07
2019-01-28T08:43:29.769Z,2.47
2019-01-28T08:45:59.935Z,1.15
2019-01-28T08:48:30.222Z,4.20
2019-01-28T08:51:00.619Z,1.37
2019-01-28T08:53:50.827Z,2.30
2019-01-28T08:56:21.001Z,6.28
2019-01-28T08:58:51.427Z,2.85
2019-01-28T09:01:41.186Z,2.85
2019-01-28T09:04:12.169Z,1.62
2019-01-28T09:06:43.020Z,1.37
2019-01-28T09:09:32.910Z,1.75
2019-01-28T09:12:22.636Z,2.58
2019-01-28T09:14:52.794Z,3.45
2019-01-28T09:17:42.197Z,2.42
2019-01-28T09:20:28.345Z,1.62
2019-01-28T09:23:18.638Z,1.57
2019-01-28T09:25:52.669Z,1.00
2019-01-28T09:34:14.459Z,1.70
2019-01-28T09:43:01.806Z,3.10
2019-01-28T09:45:41.882Z,3.12
2019-01-28T09:48:34.359Z,2.95
2019-01-28T09:54:55.066Z,2.27
2019-01-28T10:00:36.281Z,2.12
2019-01-28T10:03:07.974Z,2.37
2019-01-28T10:05:38.519Z,2.98
2019-01-28T10:08:09.481Z,1.17
2019-01-28T10:11:00.106Z,1.50
2019-01-28T10:13:31.389Z,4.40
2019-01-28T10:16:19.776Z,1.35
2019-01-28T10:18:51.312Z,2.02
2019-01-28T10:40:36.489Z,3.40
2019-01-28T10:43:09.057Z,2.12
2019-01-28T10:48:11.462Z,3.30
2019-01-28T10:50:44.229Z,2.35
2019-01-28T10:53:17.830Z,4.55
2019-01-28T10:55:48.764Z,5.60
2019-01-28T10:58:38.613Z,5.40
2019-01-28T11:01:09.277Z,2.90
2019-01-28T11:03:59.488Z,2.52
2019-01-28T11:06:49.206Z,2.52
2019-01-28T11:09:19.744Z,2.27
2019-01-28T11:12:09.805Z,3.77
2019-01-28T11:17:16.076Z,3.98
2019-01-28T11:19:46.425Z,5.92
2019-01-28T11:22:16.630Z,4.08
2019-01-28T11:24:47.716Z,4.28
2019-01-28T11:31:08.244Z,1.65
2019-01-28T11:34:05.832Z,1.42
2019-01-28T11:36:42.155Z,4.42
2019-01-28T11:52:27.189Z,2.72
2019-01-28T11:54:58.197Z,3.25
2019-01-28T11:57:39.946Z,2.83
2019-01-28T12:00:56.252Z,3.90
2019-01-28T12:07:12.986Z,6.72
2019-01-28T12:09:53.140Z,3.10
2019-01-28T12:15:41.351Z,5.58
2019-01-28T12:18:24.195Z,11.00
2019-01-28T12:24:21.724Z,3.77
2019-01-28T12:29:36.230Z,3.95
2019-01-28T12:32:06.561Z,4.40
2019-01-28T12:34:48.243Z,2.67
2019-01-28T12:40:47.921Z,2.87
2019-01-28T12:43:43.633Z,5.95
2019-01-28T12:46:18.098Z,7.90
2019-01-28T12:49:11.712Z,6.62
2019-01-28T12:51:47.609Z,3.70
2019-01-28T12:54:20.794Z,2.72
2019-01-28T12:56:52.058Z,3.67
2019-01-28T12:59:29.035Z,2.35
2019-01-28T13:17:18.086Z,3.52
2019-01-28T13:20:09.135Z,4.50
2019-01-28T13:25:56.492Z,3.72
2019-01-28T13:29:08.849Z,4.62
2019-01-28T13:44:08.953Z,5.12
2019-01-28T13:46:40.917Z,5.45
2019-01-28T13:49:37.957Z,1.55
2019-01-28T13:52:25.958Z,3.60
2019-01-28T13:54:57.097Z,3.00
2019-01-28T13:57:29.018Z,4.33
2019-01-28T13:59:59.724Z,3.58
2019-01-28T14:02:30.692Z,3.22
2019-01-28T14:08:03.821Z,3.62
2019-01-28T14:10:51.848Z,5.58
2019-01-28T14:13:25.361Z,4.42
2019-01-28T14:16:16.405Z,3.05
2019-01-28T14:21:53.611Z,1.87
2019-01-28T14:24:45.502Z,2.72
2019-01-28T14:27:22.919Z,2.62
2019-01-28T14:30:02.613Z,2.33
2019-01-28T14:35:55.991Z,4.30
2019-01-28T14:41:26.631Z,2.70
2019-01-28T14:43:57.419Z,2.90
2019-01-28T14:46:30.589Z,6.37
2019-01-28T14:49:06.975Z,6.15
2019-01-28T15:06:29.190Z,1.27
2019-01-28T15:12:11.439Z,6.25
2019-01-28T15:23:33.632Z,2.00
2019-01-28T15:26:23.711Z,1.75
2019-01-28T15:28:54.964Z,11.28
2019-01-28T15:31:25.446Z,6.35
2019-01-28T15:36:43.986Z,5.97
2019-01-28T15:42:33.479Z,2.27
2019-01-28T15:45:26.799Z,2.05
2019-01-28T15:48:18.552Z,2.22
2019-01-28T15:54:05.471Z,3.33
2019-01-28T16:11:48.662Z,2.00
2019-01-28T16:14:38.436Z,1.85
2019-01-28T16:17:28.651Z,0.93
2019-01-28T16:20:37.938Z,1.05
2019-01-28T16:23:08.888Z,2.83
2019-01-28T16:25:39.233Z,1.65
2019-01-28T16:28:09.876Z,0.98
2019-01-28T16:31:01.578Z,2.25
2019-01-28T16:39:13.899Z,3.37
2019-01-28T16:48:53.345Z,3.12
2019-01-28T16:50:43.488Z,1.40
2019-01-28T16:53:33.737Z,4.53
2019-01-28T16:56:25.536Z,1.20
2019-01-28T17:01:42.267Z,1.70
2019-01-28T17:04:13.525Z,2.08
2019-01-28T17:07:07.207Z,1.30
2019-01-28T17:15:32.185Z,2.05
2019-01-28T17:27:21.567Z,1.55
2019-01-28T17:30:18.612Z,5.12
2019-01-28T17:38:45.133Z,3.22
2019-01-28T17:41:30.605Z,8.43
2019-01-28T17:44:01.752Z,3.50
2019-01-28T17:46:33.566Z,5.03
2019-01-28T17:49:09.195Z,4.55
2019-01-28T17:51:40.025Z,4.03
2019-01-28T17:54:30.276Z,4.92
2019-01-28T17:57:01.215Z,3.17
2019-01-28T18:02:34.401Z,9.15
2019-01-28T18:05:18.350Z,8.90
2019-01-28T18:34:34.541Z,6.92
2019-01-28T18:37:12.777Z,5.70
2019-01-28T19:03:11.287Z,15.20
2019-01-28T19:11:21.713Z,11.73
2019-01-28T19:14:19.695Z,11.25
2019-01-28T19:17:33.578Z,15.15
2019-01-28T19:33:00.027Z,11.18
2019-01-28T19:38:26.970Z,11.43
2019-01-28T19:41:28.156Z,11.93
2019-01-28T19:53:17.584Z,7.75
2019-01-28T19:58:57.104Z,7.78
2019-01-28T20:01:28.629Z,12.75
2019-01-28T20:12:50.141Z,8.13
2019-01-28T20:15:22.303Z,8.78
2019-01-28T20:17:52.947Z,12.00
2019-01-28T20:20:23.845Z,12.23
2019-01-28T20:22:54.158Z,7.08
2019-01-28T20:25:25.007Z,7.78
2019-01-28T20:27:55.512Z,15.88
2019-01-28T20:30:27.654Z,7.70
2019-01-28T20:32:57.887Z,9.33
2019-01-28T20:35:30.055Z,7.78
2019-01-28T20:38:04.587Z,11.28
2019-01-28T20:40:37.670Z,7.50
2019-01-28T20:43:23.998Z,12.63
2019-01-28T20:45:56.374Z,12.18
2019-01-28T20:48:26.908Z,7.33
2019-01-28T20:50:58.532Z,14.53
2019-01-28T20:53:31.269Z,9.90
2019-01-28T20:56:01.854Z,8.60
2019-01-28T20:58:33.149Z,14.23
2019-01-28T21:01:08.833Z,8.08
2019-01-28T21:03:39.677Z,11.15
2019-01-28T21:06:11.145Z,16.55
2019-01-28T21:08:43.118Z,15.60
2019-01-28T21:11:15.146Z,8.28
2019-01-28T21:13:46.881Z,11.45
2019-01-28T21:16:17.509Z,5.00
2019-01-28T21:18:49.023Z,10.78
2019-01-28T21:21:21.914Z,7.22
2019-01-28T21:23:52.440Z,8.13
2019-01-28T21:26:22.692Z,15.38
2019-01-28T21:28:54.526Z,11.25
2019-01-28T21:31:25.177Z,14.20
2019-01-28T21:33:55.819Z,9.53
2019-01-28T21:36:33.434Z,10.00
2019-01-28T21:39:14.075Z,6.90
2019-01-28T21:41:45.121Z,7.42
2019-01-28T21:44:31.632Z,16.77
2019-01-28T21:47:01.864Z,14.30
2019-01-28T21:57:37.112Z,16.32
2019-01-28T22:00:07.916Z,11.48
2019-01-28T22:02:38.173Z,8.25
2019-01-28T22:05:13.875Z,11.22
2019-01-28T22:07:43.962Z,13.32
2019-01-28T22:10:14.521Z,9.13
2019-01-28T22:12:44.734Z,10.03
2019-01-28T22:15:18.721Z,6.95
2019-01-28T22:17:52.860Z,6.85
2019-01-28T22:20:25.046Z,7.80
2019-01-28T22:23:11.060Z,6.80
2019-01-28T22:25:41.399Z,8.35
2019-01-28T22:28:14.900Z,14.68
2019-01-28T22:30:54.700Z,10.00
2019-01-28T22:33:29.168Z,8.55
2019-01-28T22:35:59.759Z,10.68
2019-01-28T22:38:30.438Z,8.30
2019-01-28T22:41:00.886Z,9.03
2019-01-28T22:43:31.507Z,5.05
2019-01-28T22:46:01.512Z,7.85
2019-01-28T22:48:31.563Z,9.53
2019-01-28T22:51:01.895Z,11.30
2019-01-28T22:53:31.790Z,12.88
2019-01-28T22:56:01.814Z,9.05
2019-01-28T22:58:31.839Z,10.32
2019-01-28T23:01:35.979Z,8.68
2019-01-28T23:04:06.710Z,7.83
2019-01-28T23:06:37.211Z,10.38
2019-01-28T23:09:10.003Z,8.43
2019-01-28T23:11:39.939Z,6.72
2019-01-28T23:14:10.129Z,8.25
2019-01-28T23:16:40.291Z,8.13
2019-01-28T23:19:10.395Z,8.38
2019-01-28T23:21:41.747Z,8.48
2019-01-28T23:24:11.848Z,13.28
2019-01-28T23:26:41.948Z,7.00
2019-01-28T23:29:11.894Z,13.03
2019-01-28T23:31:41.772Z,12.23
2019-01-28T23:34:11.828Z,8.98
2019-01-28T23:36:41.813Z,12.78
2019-01-28T23:39:11.782Z,7.22
2019-01-28T23:41:41.681Z,6.80
2019-01-28T23:44:11.588Z,9.93
2019-01-28T23:46:41.551Z,12.10
2019-01-28T23:49:11.454Z,11.88
2019-01-28T23:51:41.466Z,8.58
2019-01-28T23:54:11.772Z,13.50
2019-01-28T23:56:41.868Z,10.48
2019-01-28T23:59:11.868Z,8.13
